Time;durP1;ratioP1;P1;durP2;ratioP2;P2;SDS_P1;SDS_P2;PMS_P1;PMS_P2;Temp;Humidity;BMP_temperature;BMP_pressure;BME280_temperature;BME280_humidity;BME280_pressure;Samples;Min_cycle;Max_cycle;Signal;HPM_P1;HPM_P2
2023/11/15 00:00:51;;;;;;;1.50;1.10;;;9.30;1.00;;;;;;6155325;23;20359;-56
2023/11/15 00:03:16;;;;;;;2.67;1.20;;;9.30;1.00;;;;;;6156297;23;20550;-57
2023/11/15 00:05:45;;;;;;;3.40;1.00;;;9.20;1.00;;;;;;6156040;23;20214;-57
2023/11/15 00:08:11;;;;;;;2.70;1.07;;;9.20;1.00;;;;;;6155929;23;20222;-56
2023/11/15 00:10:40;;;;;;;3.33;0.87;;;9.20;1.00;;;;;;6129688;23;20394;-55
2023/11/15 00:13:06;;;;;;;3.23;1.10;;;9.20;1.00;;;;;;6156928;23;20173;-54
2023/11/15 00:15:33;;;;;;;3.73;1.30;;;9.10;1.00;;;;;;6158301;23;20383;-59
2023/11/15 00:18:04;;;;;;;3.90;1.20;;;9.20;1.00;;;;;;6157551;23;20406;-55
2023/11/15 00:20:35;;;;;;;2.60;0.87;;;9.20;99.90;;;;;;6156599;23;20755;-56
2023/11/15 00:23:02;;;;;;;4.40;1.10;;;9.20;99.90;;;;;;6155820;23;20881;-52
2023/11/15 00:25:28;;;;;;;4.63;1.37;;;9.20;99.90;;;;;;6156119;23;20379;-53
2023/11/15 00:27:56;;;;;;;6.67;1.23;;;9.30;7.40;;;;;;6155616;23;20417;-56
2023/11/15 00:30:22;;;;;;;2.87;1.10;;;9.30;1.00;;;;;;6155377;23;20482;-55
2023/11/15 00:32:50;;;;;;;2.00;0.70;;;9.30;1.00;;;;;;6153860;23;20398;-56
2023/11/15 00:35:16;;;;;;;3.77;1.23;;;9.40;99.90;;;;;;6155947;23;20577;-56
2023/11/15 00:37:42;;;;;;;2.80;1.03;;;9.40;99.90;;;;;;6154779;23;20709;-55
2023/11/15 00:40:14;;;;;;;3.10;1.10;;;9.50;43.80;;;;;;6155032;23;20374;-55
2023/11/15 00:42:40;;;;;;;2.50;0.90;;;9.50;99.30;;;;;;6154807;23;20430;-56
2023/11/15 00:45:08;;;;;;;2.30;1.20;;;9.50;91.90;;;;;;6155865;23;20410;-56
2023/11/15 00:47:34;;;;;;;2.00;1.00;;;9.40;74.10;;;;;;6155863;23;20431;-55
2023/11/15 00:50:01;;;;;;;2.10;1.00;;;9.40;99.90;;;;;;6129336;23;20409;-56
2023/11/15 00:52:26;;;;;;;2.70;1.10;;;9.30;99.90;;;;;;6129614;23;20383;-56
2023/11/15 00:54:52;;;;;;;2.60;1.07;;;9.30;99.90;;;;;;6156490;23;20390;-55
2023/11/15 00:57:18;;;;;;;2.50;1.03;;;9.30;1.00;;;;;;6158241;23;20225;-58
2023/11/15 00:59:47;;;;;;;2.30;1.67;;;9.20;1.00;;;;;;6158255;23;20493;-53
2023/11/15 01:02:14;;;;;;;5.80;1.10;;;9.20;1.00;;;;;;6158246;23;20179;-54
2023/11/15 01:04:41;;;;;;;8.33;1.40;;;9.10;1.00;;;;;;6157692;23;20386;-58
2023/11/15 01:07:07;;;;;;;4.13;1.30;;;9.10;1.00;;;;;;6132926;23;20366;-57
2023/11/15 01:09:36;;;;;;;4.40;1.10;;;9.10;1.00;;;;;;6157837;23;20371;-55
2023/11/15 01:12:03;;;;;;;2.77;1.17;;;9.10;9.60;;;;;;6133044;23;20436;-57
2023/11/15 01:14:29;;;;;;;4.00;1.00;;;9.10;1.00;;;;;;6158139;23;20394;-58
2023/11/15 01:16:55;;;;;;;6.07;1.20;;;9.10;1.00;;;;;;6157825;23;20766;-57
2023/11/15 01:19:21;;;;;;;2.33;1.03;;;9.10;1.00;;;;;;6158596;23;20844;-58
2023/11/15 01:21:46;;;;;;;3.70;1.07;;;9.10;1.00;;;;;;6157730;23;20193;-56
2023/11/15 01:24:13;;;;;;;2.40;1.00;;;9.00;1.00;;;;;;6157734;23;20151;-56
2023/11/15 01:26:38;;;;;;;3.53;1.17;;;9.00;1.00;;;;;;6157381;23;20152;-56
2023/11/15 01:29:04;;;;;;;5.30;1.60;;;9.00;1.00;;;;;;6155527;23;20387;-55
2023/11/15 01:31:30;;;;;;;3.67;1.30;;;9.00;1.40;;;;;;6130230;23;20187;-54
2023/11/15 01:33:55;;;;;;;2.07;1.20;;;9.00;22.90;;;;;;6156026;23;20741;-57
2023/11/15 01:36:21;;;;;;;6.43;2.03;;;9.00;38.10;;;;;;6155826;23;20163;-58
2023/11/15 01:38:47;;;;;;;4.50;1.10;;;9.00;94.90;;;;;;6155872;23;20156;-58
2023/11/15 01:41:13;;;;;;;1.90;1.17;;;9.00;99.90;;;;;;6157141;23;20463;-55
2023/11/15 01:43:39;;;;;;;2.80;1.30;;;8.90;99.90;;;;;;6158297;23;20482;-56
2023/11/15 01:46:05;;;;;;;3.50;1.60;;;8.90;99.90;;;;;;6157782;23;20138;-58
2023/11/15 01:48:31;;;;;;;2.30;1.00;;;8.90;99.90;;;;;;6158378;23;20439;-57
2023/11/15 01:50:57;;;;;;;3.30;1.27;;;8.90;99.90;;;;;;6158603;23;20670;-57
2023/11/15 01:53:24;;;;;;;4.63;1.30;;;8.90;99.90;;;;;;6132118;23;20809;-57
2023/11/15 01:55:50;;;;;;;2.80;1.17;;;8.80;99.90;;;;;;6132615;23;20218;-56
2023/11/15 01:58:16;;;;;;;2.67;1.07;;;8.80;99.90;;;;;;6157555;23;20355;-56
2023/11/15 02:00:42;;;;;;;3.20;1.17;;;8.80;99.90;;;;;;6157521;23;20450;-58
2023/11/15 02:03:07;;;;;;;3.57;1.40;;;9.00;1.00;;;;;;6156654;23;20423;-54
2023/11/15 02:05:33;;;;;;;3.50;1.13;;;9.30;1.00;;;;;;6156140;23;20155;-52
2023/11/15 02:07:59;;;;;;;5.60;1.17;;;9.30;1.00;;;;;;6156496;23;20158;-55
2023/11/15 02:10:25;;;;;;;2.17;1.47;;;9.20;1.00;;;;;;6131237;23;20572;-57
2023/11/15 02:12:50;;;;;;;1.60;1.50;;;9.10;99.90;;;;;;6157038;23;20136;-56
2023/11/15 02:15:16;;;;;;;4.13;1.47;;;9.10;99.90;;;;;;6157800;23;20393;-56
2023/11/15 02:17:48;;;;;;;2.10;1.10;;;9.00;99.90;;;;;;6157819;23;20156;-57
2023/11/15 02:20:17;;;;;;;2.27;1.10;;;8.90;99.90;;;;;;6156454;23;20715;-57
2023/11/15 02:22:50;;;;;;;6.13;1.10;;;8.90;99.90;;;;;;6156569;23;20426;-56
2023/11/15 02:25:17;;;;;;;2.57;1.37;;;8.90;99.90;;;;;;6157008;23;20359;-54
2023/11/15 02:27:43;;;;;;;2.60;0.90;;;8.90;99.90;;;;;;6156747;23;20413;-56
2023/11/15 02:30:10;;;;;;;4.17;1.43;;;8.80;99.90;;;;;;6157959;23;20513;-54
2023/11/15 02:32:41;;;;;;;2.27;1.00;;;8.90;99.90;;;;;;6157212;23;20390;-56
2023/11/15 02:35:07;;;;;;;3.70;1.07;;;8.90;99.90;;;;;;6157318;23;20387;-56
2023/11/15 02:37:34;;;;;;;3.10;1.37;;;8.90;99.90;;;;;;6156925;23;20666;-58
2023/11/15 02:40:04;;;;;;;3.57;1.37;;;8.90;99.90;;;;;;6157038;23;20418;-55
2023/11/15 02:42:33;;;;;;;1.63;1.00;;;8.90;99.90;;;;;;6157760;23;20423;-55
2023/11/15 02:44:59;;;;;;;2.53;1.50;;;8.80;99.90;;;;;;6156476;23;20736;-57
2023/11/15 02:47:25;;;;;;;5.17;1.27;;;8.90;99.90;;;;;;6157205;23;20458;-56
2023/11/15 02:49:54;;;;;;;4.33;1.20;;;8.80;99.90;;;;;;6156888;23;20156;-55
2023/11/15 02:52:20;;;;;;;3.23;2.20;;;8.80;99.90;;;;;;6157000;23;20425;-51
2023/11/15 02:54:47;;;;;;;5.53;1.93;;;8.80;99.90;;;;;;6156316;23;20367;-55
2023/11/15 02:57:13;;;;;;;5.70;1.10;;;8.80;99.90;;;;;;6156437;23;20391;-55
2023/11/15 02:59:39;;;;;;;2.97;1.10;;;8.80;99.90;;;;;;6157133;23;20454;-54
2023/11/15 03:02:04;;;;;;;1.97;1.10;;;8.80;99.90;;;;;;6156568;23;20159;-57
2023/11/15 03:04:30;;;;;;;4.47;1.30;;;8.80;99.90;;;;;;6156697;23;20239;-55
2023/11/15 03:06:56;;;;;;;4.27;1.40;;;8.70;99.90;;;;;;6157183;23;20131;-56
2023/11/15 03:09:21;;;;;;;3.13;1.60;;;8.70;99.90;;;;;;6105981;23;20461;-56
2023/11/15 03:11:47;;;;;;;2.47;1.10;;;8.70;99.90;;;;;;6156599;23;20278;-55
2023/11/15 03:14:13;;;;;;;2.50;1.20;;;8.70;99.90;;;;;;6130816;23;20289;-56
2023/11/15 03:16:40;;;;;;;3.97;0.90;;;8.70;99.90;;;;;;6155862;23;20253;-54
2023/11/15 03:19:06;;;;;;;3.40;1.33;;;8.70;99.90;;;;;;6156771;23;20150;-56
2023/11/15 03:21:32;;;;;;;2.33;1.33;;;8.80;99.90;;;;;;6157215;23;20792;-56
2023/11/15 03:23:58;;;;;;;4.00;1.40;;;8.70;99.90;;;;;;6157061;23;20438;-56
2023/11/15 03:26:23;;;;;;;4.07;1.50;;;8.70;99.90;;;;;;6157774;23;20155;-55
2023/11/15 03:28:50;;;;;;;2.00;1.27;;;8.60;99.90;;;;;;6156527;23;20162;-55
2023/11/15 03:31:17;;;;;;;4.50;1.60;;;8.60;99.90;;;;;;6156871;23;20127;-55
2023/11/15 03:33:43;;;;;;;4.40;1.20;;;8.50;99.90;;;;;;6156788;23;20454;-57
2023/11/15 03:36:09;;;;;;;4.13;1.20;;;8.60;99.90;;;;;;6157038;23;20871;-55
2023/11/15 03:38:36;;;;;;;2.43;1.40;;;8.50;99.90;;;;;;6157201;23;20286;-53
2023/11/15 03:41:02;;;;;;;5.73;1.40;;;8.50;99.90;;;;;;6157070;23;20406;-54
2023/11/15 03:43:27;;;;;;;2.27;1.20;;;8.50;99.90;;;;;;6156495;23;20549;-56
2023/11/15 03:45:54;;;;;;;2.67;1.30;;;8.50;99.90;;;;;;6156852;23;20155;-56
2023/11/15 03:48:20;;;;;;;3.70;1.20;;;8.50;99.90;;;;;;6141847;23;20198;-57
2023/11/15 03:50:46;;;;;;;2.33;1.07;;;8.40;99.90;;;;;;6155926;23;20398;-56
2023/11/15 03:53:12;;;;;;;2.10;1.60;;;8.50;99.90;;;;;;6155338;23;20391;-54
2023/11/15 03:55:38;;;;;;;3.57;1.30;;;8.50;99.90;;;;;;6155285;23;20247;-52
2023/11/15 03:58:04;;;;;;;4.50;1.53;;;8.60;99.90;;;;;;6156869;23;20366;-57
2023/11/15 04:00:30;;;;;;;2.50;1.77;;;8.60;99.90;;;;;;6154895;23;20493;-57
2023/11/15 04:02:55;;;;;;;4.80;1.30;;;8.50;99.90;;;;;;6156141;23;20265;-56
2023/11/15 04:05:22;;;;;;;5.60;1.27;;;8.50;99.90;;;;;;6156562;23;20151;-56
2023/11/15 04:07:47;;;;;;;5.53;1.30;;;8.50;99.90;;;;;;6154611;23;20186;-57
2023/11/15 04:10:13;;;;;;;3.37;1.17;;;8.50;99.90;;;;;;6156857;23;20472;-58
2023/11/15 04:12:39;;;;;;;4.20;1.67;;;8.50;99.90;;;;;;6156592;23;20370;-56
2023/11/15 04:15:08;;;;;;;3.73;0.93;;;8.50;99.90;;;;;;6156894;23;20246;-56
2023/11/15 04:17:35;;;;;;;4.57;1.10;;;8.40;99.90;;;;;;6156474;23;20167;-56
2023/11/15 04:20:01;;;;;;;6.60;1.20;;;8.40;99.90;;;;;;6157009;23;20458;-55
2023/11/15 04:22:26;;;;;;;3.67;1.10;;;8.40;99.90;;;;;;6155755;23;21023;-57
2023/11/15 04:24:53;;;;;;;4.03;1.40;;;8.40;99.90;;;;;;6154932;23;20355;-56
2023/11/15 04:27:18;;;;;;;1.97;1.10;;;8.40;99.90;;;;;;6155862;23;20147;-56
2023/11/15 04:29:44;;;;;;;1.97;1.23;;;8.40;99.90;;;;;;6155427;23;20597;-57
2023/11/15 04:32:10;;;;;;;5.20;1.63;;;8.40;99.90;;;;;;6156595;23;20159;-56
2023/11/15 04:34:36;;;;;;;5.33;1.40;;;8.40;99.90;;;;;;6156659;23;20797;-57
2023/11/15 04:37:02;;;;;;;3.93;1.47;;;8.40;99.90;;;;;;6156465;23;20151;-57
2023/11/15 04:39:28;;;;;;;6.03;1.63;;;8.30;99.90;;;;;;6155708;23;20162;-56
2023/11/15 04:41:53;;;;;;;1.90;1.20;;;8.30;99.90;;;;;;6158141;23;20395;-56
2023/11/15 04:44:23;;;;;;;7.47;1.83;;;8.30;99.90;;;;;;6156721;23;20162;-55
2023/11/15 04:46:48;;;;;;;6.47;1.83;;;8.30;1.00;;;;;;6158650;23;20151;-56
2023/11/15 04:49:14;;;;;;;3.23;1.43;;;8.30;1.00;;;;;;6155759;23;20702;-56
2023/11/15 04:51:40;;;;;;;3.60;1.30;;;8.40;1.00;;;;;;6157238;23;20136;-54
2023/11/15 04:54:06;;;;;;;3.77;1.20;;;8.40;1.00;;;;;;6157413;23;20235;-57
2023/11/15 04:56:34;;;;;;;6.70;1.40;;;8.40;1.00;;;;;;6157554;23;20156;-56
2023/11/15 04:59:00;;;;;;;4.90;1.40;;;8.40;1.00;;;;;;6156872;23;20390;-56
2023/11/15 05:01:26;;;;;;;6.07;1.50;;;8.40;1.00;;;;;;6156446;23;20369;-55
2023/11/15 05:03:52;;;;;;;2.93;1.43;;;8.40;1.00;;;;;;6156685;23;20981;-54
2023/11/15 05:06:18;;;;;;;1.73;1.03;;;8.40;1.00;;;;;;6157114;23;20158;-57
2023/11/15 05:08:43;;;;;;;3.97;1.20;;;8.50;1.00;;;;;;6156734;23;20156;-55
2023/11/15 05:11:09;;;;;;;3.27;1.50;;;8.50;1.00;;;;;;6157683;23;20419;-55
2023/11/15 05:13:35;;;;;;;2.77;1.03;;;8.50;1.00;;;;;;6156642;23;20155;-56
2023/11/15 05:16:01;;;;;;;2.83;1.20;;;8.50;1.00;;;;;;6156570;23;20751;-56
2023/11/15 05:18:26;;;;;;;5.03;1.57;;;8.50;1.00;;;;;;6157816;23;20523;-53
2023/11/15 05:20:52;;;;;;;2.70;1.50;;;8.50;1.00;;;;;;6156740;23;20173;-56
2023/11/15 05:23:18;;;;;;;3.20;1.50;;;8.50;1.00;;;;;;6157041;23;20179;-56
2023/11/15 05:25:44;;;;;;;4.77;1.50;;;8.50;1.00;;;;;;6155596;23;20159;-52
2023/11/15 05:28:10;;;;;;;4.13;2.50;;;8.50;1.00;;;;;;6157334;23;20132;-52
2023/11/15 05:30:36;;;;;;;3.50;1.83;;;8.50;1.00;;;;;;6157293;23;20757;-56
2023/11/15 05:33:01;;;;;;;3.93;1.10;;;8.50;1.00;;;;;;6157710;23;20387;-56
2023/11/15 05:35:27;;;;;;;6.10;1.33;;;8.50;1.00;;;;;;6156899;23;20570;-54
2023/11/15 05:37:53;;;;;;;7.20;1.97;;;8.50;1.00;;;;;;6157384;23;20186;-55
2023/11/15 05:40:19;;;;;;;4.07;1.17;;;8.50;1.00;;;;;;6156912;23;20139;-55
2023/11/15 05:42:44;;;;;;;4.47;1.40;;;8.50;1.00;;;;;;6157148;23;20167;-54
2023/11/15 05:45:11;;;;;;;3.37;1.30;;;8.50;1.00;;;;;;6156468;23;20153;-54
2023/11/15 05:47:38;;;;;;;11.10;1.60;;;8.40;1.00;;;;;;6156034;23;20202;-55
2023/11/15 05:50:09;;;;;;;3.23;2.10;;;8.40;1.00;;;;;;6156202;23;20387;-54
2023/11/15 05:52:37;;;;;;;3.83;1.73;;;8.40;1.00;;;;;;6155369;23;20398;-56
2023/11/15 05:55:05;;;;;;;2.73;1.50;;;8.40;1.00;;;;;;6154600;23;20363;-55
2023/11/15 05:57:32;;;;;;;1.73;1.23;;;8.30;1.00;;;;;;6155993;23;20505;-56
2023/11/15 05:59:58;;;;;;;3.10;1.50;;;8.30;1.00;;;;;;6156623;23;20724;-53
2023/11/15 06:02:24;;;;;;;4.70;1.43;;;8.30;1.00;;;;;;6155684;23;20426;-56
2023/11/15 06:04:52;;;;;;;2.77;1.20;;;8.30;1.00;;;;;;6155511;23;20417;-55
2023/11/15 06:07:18;;;;;;;6.00;1.87;;;8.30;1.00;;;;;;6155838;23;20128;-56
2023/11/15 06:09:46;;;;;;;1.50;1.00;;;8.30;1.00;;;;;;6154445;23;20716;-55
2023/11/15 06:12:12;;;;;;;8.57;3.00;;;8.30;1.00;;;;;;6152481;23;20698;-54
2023/11/15 06:14:38;;;;;;;2.63;1.03;;;8.30;1.00;;;;;;6151715;23;20389;-56
2023/11/15 06:17:03;;;;;;;3.37;1.43;;;8.30;1.00;;;;;;6152460;23;20530;-52
2023/11/15 06:19:31;;;;;;;2.90;1.60;;;8.30;1.00;;;;;;6125589;23;20151;-54
2023/11/15 06:21:57;;;;;;;3.23;1.47;;;8.30;1.00;;;;;;6124816;23;20693;-55
2023/11/15 06:24:23;;;;;;;1.80;1.13;;;8.30;1.00;;;;;;6150633;23;20537;-55
2023/11/15 06:26:51;;;;;;;1.63;1.00;;;8.30;1.00;;;;;;6151337;23;20401;-56
2023/11/15 06:29:18;;;;;;;5.20;1.47;;;8.30;1.00;;;;;;6152891;23;20385;-55
2023/11/15 06:31:45;;;;;;;3.80;1.40;;;8.30;1.00;;;;;;6152144;23;20390;-55
2023/11/15 06:34:11;;;;;;;4.27;1.20;;;8.30;1.00;;;;;;6151541;23;20359;-57
2023/11/15 06:36:36;;;;;;;1.77;1.37;;;8.30;1.00;;;;;;6149497;23;20936;-56
2023/11/15 06:39:04;;;;;;;4.90;1.67;;;8.30;1.00;;;;;;6151375;23;20386;-54
2023/11/15 06:41:34;;;;;;;7.53;2.00;;;8.30;1.00;;;;;;6150927;23;20179;-56
2023/11/15 06:44:00;;;;;;;4.17;1.30;;;8.30;1.00;;;;;;6150098;23;20460;-55
2023/11/15 06:46:25;;;;;;;4.40;1.37;;;8.30;1.00;;;;;;6149862;23;20360;-54
2023/11/15 06:48:51;;;;;;;4.03;1.47;;;8.30;1.00;;;;;;6151192;23;20214;-56
2023/11/15 06:51:17;;;;;;;4.03;1.57;;;8.30;1.00;;;;;;6125082;23;20209;-55
2023/11/15 06:53:45;;;;;;;5.00;1.50;;;8.30;1.00;;;;;;6151997;23;20159;-55
2023/11/15 06:56:11;;;;;;;8.10;2.90;;;8.30;1.00;;;;;;6151535;23;20550;-56
2023/11/15 06:58:37;;;;;;;3.43;1.97;;;8.30;1.00;;;;;;6152135;23;20391;-53
2023/11/15 07:01:06;;;;;;;3.70;1.93;;;8.20;1.00;;;;;;6154648;23;20142;-56
2023/11/15 07:03:31;;;;;;;3.97;1.70;;;8.20;1.00;;;;;;6155772;23;20265;-56
2023/11/15 07:05:58;;;;;;;4.30;1.70;;;8.20;1.00;;;;;;6154124;23;20418;-56
2023/11/15 07:08:23;;;;;;;5.17;2.10;;;8.20;1.00;;;;;;6126615;23;20246;-56
2023/11/15 07:10:49;;;;;;;6.03;2.27;;;8.20;1.00;;;;;;6151729;23;20430;-55
2023/11/15 07:13:16;;;;;;;3.60;2.13;;;8.30;1.00;;;;;;6155348;23;20202;-56
2023/11/15 07:15:44;;;;;;;4.17;1.70;;;8.40;1.00;;;;;;6155295;23;20138;-55
2023/11/15 07:18:10;;;;;;;3.23;1.93;;;8.60;1.00;;;;;;6154644;23;20390;-57
2023/11/15 07:20:38;;;;;;;4.27;1.60;;;8.90;1.00;;;;;;6151925;23;20390;-56
2023/11/15 07:23:03;;;;;;;6.07;1.60;;;9.10;1.00;;;;;;6153587;23;20438;-61
2023/11/15 07:25:29;;;;;;;2.50;1.43;;;9.60;99.90;;;;;;6154462;23;20751;-55
2023/11/15 07:27:58;;;;;;;4.63;1.27;;;9.90;99.90;;;;;;6156483;23;20523;-57
2023/11/15 07:30:24;;;;;;;3.47;1.23;;;10.30;99.90;;;;;;6155497;23;20501;-58
2023/11/15 07:32:50;;;;;;;5.00;1.20;;;10.50;1.00;;;;;;6155669;23;20406;-57
2023/11/15 07:35:15;;;;;;;2.23;1.47;;;10.50;1.00;;;;;;6154419;23;20363;-56
2023/11/15 07:37:41;;;;;;;2.53;1.20;;;10.40;1.00;;;;;;6154421;23;20146;-55
2023/11/15 07:40:12;;;;;;;3.47;1.60;;;10.20;1.00;;;;;;6153073;23;20178;-56
2023/11/15 07:42:39;;;;;;;4.37;1.63;;;10.10;1.00;;;;;;6153692;23;20437;-55
2023/11/15 07:45:08;;;;;;;3.40;1.40;;;9.90;1.00;;;;;;6153533;23;20781;-53
2023/11/15 07:47:34;;;;;;;6.73;1.63;;;9.70;99.90;;;;;;6153590;23;20423;-56
2023/11/15 07:50:04;;;;;;;4.17;1.50;;;9.60;99.90;;;;;;6153316;23;20356;-56
2023/11/15 07:52:33;;;;;;;8.07;2.43;;;9.60;99.90;;;;;;6155056;23;20391;-56
2023/11/15 07:54:59;;;;;;;3.47;1.40;;;9.60;99.90;;;;;;6154323;23;20934;-55
2023/11/15 07:57:25;;;;;;;5.50;2.10;;;9.60;99.90;;;;;;6152628;23;20421;-57
2023/11/15 07:59:52;;;;;;;2.67;1.33;;;9.70;99.90;;;;;;6154144;23;20387;-55
2023/11/15 08:02:22;;;;;;;2.40;1.73;;;9.80;99.90;;;;;;6126777;23;20175;-57
2023/11/15 08:04:49;;;;;;;4.73;1.63;;;9.90;99.90;;;;;;6154330;23;20343;-57
2023/11/15 08:07:16;;;;;;;3.43;1.80;;;9.90;79.90;;;;;;6153818;23;20421;-57
2023/11/15 08:09:41;;;;;;;3.00;1.53;;;9.90;98.60;;;;;;6153531;23;20872;-56
2023/11/15 08:12:08;;;;;;;2.67;1.73;;;9.70;99.90;;;;;;6153809;23;20405;-55
2023/11/15 08:14:33;;;;;;;6.40;2.10;;;9.70;99.90;;;;;;6154052;23;20473;-58
2023/11/15 08:17:01;;;;;;;5.27;1.80;;;9.70;99.90;;;;;;6154161;23;20383;-56
2023/11/15 08:19:26;;;;;;;6.90;1.80;;;9.50;99.90;;;;;;6155182;23;20383;-56
2023/11/15 08:21:52;;;;;;;3.33;1.50;;;9.60;99.90;;;;;;6154611;23;20389;-58
2023/11/15 08:24:21;;;;;;;3.50;1.33;;;9.70;99.90;;;;;;6153492;23;20241;-57
2023/11/15 08:26:52;;;;;;;6.13;1.30;;;9.90;99.90;;;;;;6154047;23;20235;-56
2023/11/15 08:29:18;;;;;;;4.23;1.70;;;9.90;99.90;;;;;;6153814;23;20396;-57
2023/11/15 08:31:44;;;;;;;3.03;1.53;;;9.80;99.90;;;;;;6152075;23;20686;-54
2023/11/15 08:34:10;;;;;;;3.17;1.43;;;9.70;99.90;;;;;;6153606;23;20725;-57
2023/11/15 08:36:37;;;;;;;4.10;1.90;;;9.70;99.90;;;;;;6154842;23;20225;-58
2023/11/15 08:39:03;;;;;;;3.77;1.50;;;9.70;99.90;;;;;;6153960;23;20763;-57
2023/11/15 08:41:28;;;;;;;3.60;1.60;;;9.70;99.90;;;;;;6153759;23;20721;-57
2023/11/15 08:43:54;;;;;;;3.97;1.67;;;9.70;99.90;;;;;;6153708;23;20180;-55
2023/11/15 08:46:26;;;;;;;4.40;1.77;;;9.80;99.90;;;;;;6155635;23;20383;-54
2023/11/15 08:48:53;;;;;;;2.93;1.97;;;9.70;99.90;;;;;;6155848;23;20217;-58
2023/11/15 08:51:19;;;;;;;3.53;1.40;;;9.90;99.90;;;;;;6155521;23;20410;-58
2023/11/15 08:53:46;;;;;;;5.27;1.83;;;9.80;99.90;;;;;;6154833;23;20706;-57
2023/11/15 08:56:13;;;;;;;2.90;1.70;;;10.00;99.90;;;;;;6152551;23;20359;-56
2023/11/15 08:58:39;;;;;;;5.80;1.70;;;10.10;99.90;;;;;;6154447;23;20386;-57
2023/11/15 09:01:05;;;;;;;6.87;2.30;;;10.00;99.90;;;;;;6153912;23;20880;-57
2023/11/15 09:03:32;;;;;;;5.43;1.90;;;10.10;99.90;;;;;;6153040;23;20456;-57
2023/11/15 09:05:59;;;;;;;6.27;2.00;;;10.20;99.90;;;;;;6151959;23;20478;-58
2023/11/15 09:08:25;;;;;;;4.23;1.63;;;10.20;99.90;;;;;;6152322;23;20414;-56
2023/11/15 09:10:51;;;;;;;9.77;3.33;;;10.30;99.90;;;;;;6153504;23;20371;-59
2023/11/15 09:13:18;;;;;;;2.47;1.23;;;10.50;36.40;;;;;;6156188;23;20513;-57
2023/11/15 09:15:46;;;;;;;2.13;1.17;;;10.70;99.90;;;;;;6155383;23;20674;-57
2023/11/15 09:18:14;;;;;;;3.37;1.57;;;11.20;1.00;;;;;;6156895;23;20386;-58
2023/11/15 09:20:41;;;;;;;7.43;1.73;;;11.50;1.00;;;;;;6131497;23;20383;-58
2023/11/15 09:23:08;;;;;;;2.80;1.20;;;11.80;99.90;;;;;;6155426;23;20398;-56
2023/11/15 09:25:35;;;;;;;2.10;1.00;;;12.00;1.20;;;;;;6130809;23;20378;-57
2023/11/15 09:28:02;;;;;;;4.30;2.03;;;12.90;1.00;;;;;;6156609;23;20386;-59
2023/11/15 09:30:31;;;;;;;8.90;1.40;;;14.50;1.00;;;;;;6155530;23;20619;-56
2023/11/15 09:32:57;;;;;;;3.30;1.30;;;15.90;1.00;;;;;;6155613;23;20390;-55
2023/11/15 09:35:31;;;;;;;2.33;0.93;;;17.10;1.00;;;;;;6128246;23;20367;-58
2023/11/15 09:37:57;;;;;;;2.93;1.17;;;17.50;99.90;;;;;;6155988;23;20374;-57
2023/11/15 09:40:24;;;;;;;4.73;1.70;;;17.90;99.90;;;;;;6156739;23;20394;-53
2023/11/15 09:42:59;;;;;;;2.40;0.93;;;17.60;99.90;;;;;;6156031;23;20432;-55
2023/11/15 09:45:25;;;;;;;4.20;1.50;;;16.50;99.90;;;;;;6156397;23;20400;-54
2023/11/15 09:47:52;;;;;;;3.30;0.90;;;15.90;99.90;;;;;;6156384;23;20558;-55
2023/11/15 09:50:22;;;;;;;2.43;0.80;;;15.30;1.00;;;;;;6156852;23;20172;-57
2023/11/15 09:52:49;;;;;;;3.50;1.03;;;14.80;99.90;;;;;;6155907;23;20363;-56
2023/11/15 09:55:26;;;;;;;3.47;1.17;;;14.40;1.00;;;;;;6130454;23;20454;-56
2023/11/15 09:57:53;;;;;;;2.77;1.33;;;14.60;99.90;;;;;;6154724;23;20382;-58
2023/11/15 10:00:20;;;;;;;9.50;1.53;;;14.60;1.00;;;;;;6155060;23;20759;-58
2023/11/15 10:02:52;;;;;;;3.10;0.97;;;14.40;1.00;;;;;;6155673;23;20849;-57
2023/11/15 10:05:23;;;;;;;2.83;1.40;;;13.80;99.90;;;;;;6155015;23;20410;-57
2023/11/15 10:07:52;;;;;;;4.33;1.30;;;13.60;1.00;;;;;;6155872;23;20355;-56
2023/11/15 10:10:20;;;;;;;4.13;1.40;;;13.50;99.90;;;;;;6155007;23;20375;-55
2023/11/15 10:12:50;;;;;;;2.23;1.10;;;13.20;1.00;;;;;;6156731;23;20976;-56
2023/11/15 10:15:36;;;;;;;4.20;1.43;;;13.30;99.90;;;;;;6154698;23;20406;-57
2023/11/15 10:18:11;;;;;;;4.43;1.30;;;13.60;33.30;;;;;;6153329;23;20394;-57
2023/11/15 10:20:38;;;;;;;3.33;1.17;;;14.40;99.90;;;;;;6155522;23;20393;-57
2023/11/15 10:23:04;;;;;;;2.40;0.80;;;14.70;1.00;;;;;;6155531;23;20496;-58
2023/11/15 10:25:31;;;;;;;3.20;1.33;;;14.60;99.90;;;;;;6154905;23;20410;-57
2023/11/15 10:28:03;;;;;;;2.37;1.13;;;14.60;90.10;;;;;;6154325;23;20481;-57
2023/11/15 10:30:29;;;;;;;1.80;1.07;;;14.80;28.00;;;;;;6155292;23;20398;-54
2023/11/15 10:33:10;;;;;;;1.50;0.90;;;14.20;27.50;;;;;;6128055;23;20359;-57
2023/11/15 10:35:36;;;;;;;3.57;1.10;;;14.50;62.10;;;;;;6153851;23;20140;-55
2023/11/15 10:38:03;;;;;;;4.37;1.23;;;14.60;1.00;;;;;;6154808;23;20770;-54
2023/11/15 10:40:30;;;;;;;2.83;1.00;;;15.20;1.00;;;;;;6154699;23;20465;-57
2023/11/15 10:42:58;;;;;;;2.33;0.97;;;15.50;99.90;;;;;;6154771;23;20450;-56
2023/11/15 10:45:29;;;;;;;2.37;0.83;;;15.30;99.90;;;;;;6129341;23;20359;-57
2023/11/15 10:47:57;;;;;;;1.43;0.70;;;15.90;99.90;;;;;;6136657;23;20674;-57
2023/11/15 10:50:26;;;;;;;2.00;0.90;;;15.70;99.90;;;;;;6155270;23;20387;-55
2023/11/15 10:52:53;;;;;;;4.07;1.20;;;15.90;99.90;;;;;;6156443;23;20461;-54
2023/11/15 10:55:19;;;;;;;3.40;1.10;;;16.20;99.90;;;;;;6154787;23;20398;-56
2023/11/15 10:57:46;;;;;;;2.50;0.80;;;16.60;99.90;;;;;;6154650;23;20801;-57
2023/11/15 11:00:21;;;;;;;1.70;0.87;;;16.50;65.80;;;;;;6153133;23;20179;-57
2023/11/15 11:02:51;;;;;;;3.17;1.40;;;16.80;38.70;;;;;;6156078;23;20493;-57
2023/11/15 11:05:40;;;;;;;2.20;1.10;;;17.00;19.50;;;;;;6155504;23;20783;-54
2023/11/15 11:08:15;;;;;;;2.07;0.80;;;17.20;8.00;;;;;;6131394;23;20426;-57
2023/11/15 11:10:53;;;;;;;1.60;0.87;;;17.80;1.00;;;;;;6154364;23;20375;-54
2023/11/15 11:13:22;;;;;;;2.87;1.17;;;18.20;1.00;;;;;;6154145;23;20631;-57
2023/11/15 11:15:49;;;;;;;4.50;1.07;;;18.60;1.00;;;;;;6155104;23;20474;-56
2023/11/15 11:18:18;;;;;;;1.80;0.90;;;18.90;1.00;;;;;;6153789;23;20370;-58
2023/11/15 11:21:02;;;;;;;4.73;1.30;;;19.40;1.00;;;;;;6154987;23;20616;-58
2023/11/15 11:23:30;;;;;;;2.67;1.07;;;20.20;1.00;;;;;;6153327;23;20529;-57
2023/11/15 11:26:34;;;;;;;2.00;1.00;;;19.60;1.00;;;;;;6153299;23;20801;-57
2023/11/15 11:29:02;;;;;;;1.80;0.70;;;19.10;1.00;;;;;;6154374;23;20389;-57
2023/11/15 11:31:28;;;;;;;2.77;1.10;;;17.80;1.00;;;;;;6151788;23;20481;-55
2023/11/15 11:34:10;;;;;;;2.60;1.30;;;17.60;1.00;;;;;;6152636;23;20387;-56
2023/11/15 11:36:58;;;;;;;3.50;1.20;;;18.20;1.00;;;;;;6155273;23;20183;-59
2023/11/15 11:39:46;;;;;;;2.80;1.00;;;18.90;1.00;;;;;;6154644;23;20442;-54
2023/11/15 11:42:26;;;;;;;5.50;1.30;;;18.80;1.00;;;;;;6154507;23;20378;-58
2023/11/15 11:44:54;;;;;;;3.63;1.90;;;17.70;1.00;;;;;;6154382;23;20363;-57
2023/11/15 11:47:23;;;;;;;4.07;1.27;;;16.00;1.00;;;;;;6154369;23;20478;-56
2023/11/15 11:49:50;;;;;;;2.40;1.00;;;15.50;1.00;;;;;;6153928;23;20394;-57
2023/11/15 11:52:17;;;;;;;3.53;0.80;;;15.90;1.00;;;;;;6155562;23;20387;-56
2023/11/15 11:54:54;;;;;;;2.33;0.90;;;16.50;1.00;;;;;;6154790;23;20379;-56
2023/11/15 11:57:26;;;;;;;2.20;1.10;;;17.10;1.00;;;;;;6153238;23;20421;-57
2023/11/15 12:00:18;;;;;;;1.50;0.80;;;17.30;1.00;;;;;;6154254;23;20363;-57
2023/11/15 12:02:53;;;;;;;2.20;1.23;;;17.40;1.00;;;;;;6152094;23;20459;-59
2023/11/15 12:05:24;;;;;;;3.10;1.43;;;18.70;1.00;;;;;;6154019;23;20397;-57
2023/11/15 12:07:53;;;;;;;3.13;0.90;;;19.20;1.00;;;;;;6152339;23;20391;-56
2023/11/15 12:10:19;;;;;;;2.47;1.23;;;18.10;1.00;;;;;;6152061;23;20387;-55
2023/11/15 12:13:03;;;;;;;1.90;0.70;;;19.00;1.00;;;;;;6153573;23;20861;-57
2023/11/15 12:15:29;;;;;;;2.60;0.87;;;18.60;1.00;;;;;;6155458;23;20162;-56
2023/11/15 12:17:59;;;;;;;2.10;1.00;;;18.00;1.00;;;;;;6154024;23;20390;-56
2023/11/15 12:20:33;;;;;;;4.90;1.17;;;17.60;1.00;;;;;;6154180;23;20171;-56
2023/11/15 12:23:14;;;;;;;2.20;1.03;;;17.80;1.00;;;;;;6150544;23;20860;-55
2023/11/15 12:25:47;;;;;;;2.00;1.30;;;17.40;1.00;;;;;;6152283;23;20383;-57
2023/11/15 12:28:14;;;;;;;1.83;1.00;;;17.00;1.00;;;;;;6152642;23;20770;-57
2023/11/15 12:30:42;;;;;;;2.07;1.10;;;17.60;1.00;;;;;;6152473;23;20366;-58
2023/11/15 12:33:09;;;;;;;2.90;0.90;;;17.40;1.00;;;;;;6150734;23;20383;-56
2023/11/15 12:35:35;;;;;;;1.30;0.90;;;17.80;1.00;;;;;;6151355;23;20391;-57
2023/11/15 12:38:05;;;;;;;3.33;0.93;;;18.40;1.00;;;;;;6151374;23;20465;-55
2023/11/15 12:40:34;;;;;;;3.03;1.00;;;18.80;1.00;;;;;;6152140;23;20390;-52
2023/11/15 12:43:22;;;;;;;1.70;0.87;;;18.50;1.00;;;;;;6152368;23;20410;-55
2023/11/15 12:46:14;;;;;;;2.17;0.90;;;18.70;1.00;;;;;;6153682;23;20655;-54
2023/11/15 12:48:47;;;;;;;2.90;1.10;;;19.80;1.00;;;;;;6151698;23;20430;-58
2023/11/15 12:51:15;;;;;;;1.80;0.90;;;20.30;1.00;;;;;;6153943;23;20488;-56
2023/11/15 12:53:42;;;;;;;2.90;0.90;;;19.70;1.00;;;;;;6152285;23;20738;-56
2023/11/15 12:56:17;;;;;;;3.00;0.90;;;18.50;1.00;;;;;;6153242;23;20390;-54
2023/11/15 12:58:43;;;;;;;1.47;0.60;;;18.30;1.00;;;;;;6152964;23;20663;-56
2023/11/15 13:01:15;;;;;;;4.40;0.80;;;18.50;1.00;;;;;;6155578;23;20464;-58